KCNO

Chino Airport

Chino, California, USA
METAR KCNO 101453Z VRB03KT 10SM SCT140 BKN200 11/08 A3011 RMK AO2 SLP194 T01110083 58002
Observed Flight Rules
Dec-10 @ 14:53 UTC (25 minutes ago) Visual Flight Rules
Wind Visibility Clouds
Variable at 3 knots 10 miles
  • Scattered at 14,000' AGL
  • Broken at 20,000' AGL
Temperatures Readings
Current 11°C / 52°F
Dewpoint 8°C / 46°F
Humidity 82%
Altimeter 30.11" Hg
Pressure 1019.4 hPa
Elevation 207
METAR KCNO 101453Z VRB03KT 10SM SCT140 BKN200 11/08 A3011 RMK AO2 SLP194 T01110083 58002
Observed Flight Rules
Dec-10 @ 14:53 UTC
(25 minutes ago)
VFR
Wind Visibility
Variable at 3 knots 10 miles
Clouds
  • Scattered at 14,000' AGL
  • Broken at 20,000' AGL
Temperature Dewpoint
11°C / 52°F 8°C / 46°F
Humidity Altimeter Pressure
82% 30.11" Hg 1019.4 hPa